Time;durP1;ratioP1;P1;durP2;ratioP2;P2;SDS_P1;SDS_P2;PMS_P1;PMS_P2;Temp;Humidity;BMP_temperature;BMP_pressure;BME280_temperature;BME280_humidity;BME280_pressure;Samples;Min_cycle;Max_cycle;Signal;HPM_P1;HPM_P2
2021/07/26 00:02:05;;;;;;;;;;;;;;;18.30;100.00;100392.16;5073499;28;19967;-73
2021/07/26 00:04:32;;;;;;;;;;;;;;;18.34;100.00;100393.50;5073334;28;20280;-73
2021/07/26 00:06:58;;;;;;;;;;;;;;;18.37;100.00;100389.53;5073154;28;20300;-73
2021/07/26 00:09:24;;;;;;;;;;;;;;;18.37;100.00;100387.66;5073283;28;20019;-72
2021/07/26 00:11:52;;;;;;;;;;;;;;;18.40;100.00;100381.78;5072920;28;19928;-73
2021/07/26 00:14:18;;;;;;;;;;;;;;;18.42;100.00;100376.09;5073279;28;19971;-73
2021/07/26 00:16:44;;;;;;;;;;;;;;;18.43;100.00;100375.06;5073027;28;20453;-73
2021/07/26 00:19:11;;;;;;;;;;;;;;;18.45;100.00;100386.72;5071936;28;19925;-71
2021/07/26 00:21:37;;;;;;;;;;;;;;;18.47;100.00;100378.31;5072738;28;19989;-72
2021/07/26 00:24:03;;;;;;;;;;;;;;;18.49;100.00;100378.97;5072597;28;19925;-67
2021/07/26 00:26:30;;;;;;;;;;;;;;;18.46;100.00;100380.19;5072602;28;20383;-72
2021/07/26 00:28:57;;;;;;;;;;;;;;;18.49;100.00;100374.34;5072596;28;19972;-72
2021/07/26 00:31:24;;;;;;;;;;;;;;;18.49;100.00;100373.47;5072730;28;19978;-72
2021/07/26 00:34:09;;;;;;;;;;;;;;;18.50;100.00;100373.28;5072739;28;19928;-72
2021/07/26 00:36:36;;;;;;;;;;;;;;;18.51;100.00;100369.50;5072432;28;20442;-72
2021/07/26 00:39:03;;;;;;;;;;;;;;;18.54;100.00;100374.59;5072609;28;20007;-72
2021/07/26 00:41:29;;;;;;;;;;;;;;;18.61;100.00;100379.38;5072760;28;20019;-72
2021/07/26 00:43:55;;;;;;;;;;;;;;;18.60;100.00;100370.28;5072545;28;19976;-72
2021/07/26 00:46:23;;;;;;;;;;;;;;;18.62;100.00;100375.59;5072469;28;19968;-71
2021/07/26 00:48:50;;;;;;;;;;;;;;;18.64;100.00;100373.50;5071897;28;19960;-73
2021/07/26 00:51:16;;;;;;;;;;;;;;;18.62;100.00;100370.94;5072507;28;19930;-72
2021/07/26 00:53:43;;;;;;;;;;;;;;;18.67;100.00;100367.66;5072375;28;19924;-72
2021/07/26 00:56:09;;;;;;;;;;;;;;;18.66;100.00;100368.69;5072007;28;20384;-72
2021/07/26 00:58:36;;;;;;;;;;;;;;;18.64;100.00;100366.13;5072052;28;19931;-72
2021/07/26 01:01:02;;;;;;;;;;;;;;;18.64;100.00;100365.25;5072221;28;19974;-72
2021/07/26 01:03:30;;;;;;;;;;;;;;;18.64;100.00;100373.50;5072209;28;19924;-72
2021/07/26 01:05:57;;;;;;;;;;;;;;;18.63;100.00;100372.66;5071544;28;19935;-73
2021/07/26 01:08:23;;;;;;;;;;;;;;;18.63;100.00;100360.81;5072067;28;19960;-72
2021/07/26 01:10:49;;;;;;;;;;;;;;;18.62;100.00;100370.94;5072136;28;19924;-73
2021/07/26 01:13:16;;;;;;;;;;;;;;;18.59;100.00;100368.56;5072117;28;19924;-72
2021/07/26 01:15:42;;;;;;;;;;;;;;;18.56;100.00;100369.78;5071855;28;19928;-72
2021/07/26 01:18:22;;;;;;;;;;;;;;;18.57;100.00;100368.75;5071828;28;19954;-72
2021/07/26 01:20:50;;;;;;;;;;;;;;;18.61;100.00;100363.72;5071882;28;19990;-72
2021/07/26 01:23:16;;;;;;;;;;;;;;;18.62;100.00;100370.09;5071785;28;20452;-72
2021/07/26 01:25:42;;;;;;;;;;;;;;;18.68;100.00;100369.31;5071588;28;19963;-72
2021/07/26 01:28:09;;;;;;;;;;;;;;;18.73;100.00;100366.88;5071786;28;20335;-72
2021/07/26 01:30:35;;;;;;;;;;;;;;;18.77;100.00;100359.97;5071605;28;19964;-72
2021/07/26 01:33:01;;;;;;;;;;;;;;;18.76;100.00;100354.66;5070484;28;20370;-72
2021/07/26 01:35:28;;;;;;;;;;;;;;;18.77;100.00;100357.22;5071429;28;19970;-71
2021/07/26 01:37:55;;;;;;;;;;;;;;;18.73;100.00;100366.88;5071689;28;19924;-71
2021/07/26 01:40:21;;;;;;;;;;;;;;;18.72;100.00;100370.69;5071667;28;19928;-72
2021/07/26 01:42:48;;;;;;;;;;;;;;;18.71;100.00;100368.97;5071329;28;19978;-72
2021/07/26 01:45:14;;;;;;;;;;;;;;;18.71;100.00;100367.06;5071699;28;19924;-71
2021/07/26 01:47:44;;;;;;;;;;;;;;;18.72;100.00;100365.19;5071380;28;20258;-71
2021/07/26 01:50:11;;;;;;;;;;;;;;;18.73;100.00;100364.13;5071614;28;20465;-72
2021/07/26 01:52:37;;;;;;;;;;;;;;;18.72;100.00;100359.69;5071477;28;19968;-72
2021/07/26 01:55:06;;;;;;;;;;;;;;;18.70;100.00;100367.25;5071922;28;20358;-71
2021/07/26 01:57:32;;;;;;;;;;;;;;;18.68;100.00;100374.81;5077833;28;20019;-72
2021/07/26 01:59:58;;;;;;;;;;;;;;;18.68;100.00;100369.31;5077914;28;20018;-71
2021/07/26 02:02:26;;;;;;;;;;;;;;;18.69;100.00;100374.66;5078319;28;20391;-71
2021/07/26 02:04:52;;;;;;;;;;;;;;;18.68;100.00;100369.31;5077895;28;19939;-71
2021/07/26 02:07:18;;;;;;;;;;;;;;;18.67;100.00;100378.63;5078138;28;19970;-71
2021/07/26 02:09:45;;;;;;;;;;;;;;;18.65;100.00;100377.97;5077945;28;20375;-71
2021/07/26 02:12:12;;;;;;;;;;;;;;;18.64;100.00;100377.13;5078117;28;19982;-71
2021/07/26 02:14:39;;;;;;;;;;;;;;;18.66;100.00;100376.94;5077921;28;19960;-71
2021/07/26 02:17:06;;;;;;;;;;;;;;;18.66;100.00;100371.44;5077718;28;19924;-71
2021/07/26 02:19:32;;;;;;;;;;;;;;;18.65;100.00;100376.09;5076959;28;19925;-71
2021/07/26 02:21:59;;;;;;;;;;;;;;;18.65;100.00;100370.59;5077993;28;20023;-71
2021/07/26 02:24:25;;;;;;;;;;;;;;;18.64;100.00;100371.63;5077722;28;20459;-71
2021/07/26 02:26:51;;;;;;;;;;;;;;;18.65;100.00;100380.72;5077730;28;19986;-72
2021/07/26 02:29:19;;;;;;;;;;;;;;;18.66;100.00;100376.94;5078346;28;19962;-71
2021/07/26 02:31:45;;;;;;;;;;;;;;;18.65;100.00;100384.34;5077726;28;19963;-71
2021/07/26 02:34:12;;;;;;;;;;;;;;;18.67;100.00;100371.25;5077779;28;19928;-71
2021/07/26 02:36:39;;;;;;;;;;;;;;;18.70;100.00;100372.75;5077606;28;20295;-71
2021/07/26 02:39:05;;;;;;;;;;;;;;;18.72;100.00;100374.28;5077902;28;20295;-71
2021/07/26 02:41:33;;;;;;;;;;;;;;;18.72;100.00;100376.19;5077550;28;21580;-71
2021/07/26 02:44:00;;;;;;;;;;;;;;;18.69;100.00;100377.41;5077757;28;20366;-71
2021/07/26 02:46:27;;;;;;;;;;;;;;;18.69;100.00;100382.91;5077982;28;20019;-71
2021/07/26 02:48:53;;;;;;;;;;;;;;;18.67;100.00;100381.38;5077757;28;19925;-71
2021/07/26 02:51:20;;;;;;;;;;;;;;;18.66;100.00;100387.91;5077914;28;19924;-72
2021/07/26 02:53:46;;;;;;;;;;;;;;;18.62;100.00;100390.19;5077624;28;19959;-72
2021/07/26 02:56:12;;;;;;;;;;;;;;;18.59;100.00;100385.06;5077517;28;19990;-72
2021/07/26 02:58:39;;;;;;;;;;;;;;;18.58;100.00;100381.44;5077639;28;20284;-70
2021/07/26 03:01:08;;;;;;;;;;;;;;;18.60;100.00;100377.66;5077484;28;20011;-71
2021/07/26 03:03:36;;;;;;;;;;;;;;;18.62;100.00;100367.34;5077509;28;20024;-71
2021/07/26 03:06:02;;;;;;;;;;;;;;;18.61;100.00;100371.97;5077523;28;19924;-71
2021/07/26 03:08:30;;;;;;;;;;;;;;;18.56;100.00;100382.69;5073452;28;19928;-70
2021/07/26 03:10:59;;;;;;;;;;;;;;;18.51;100.00;100385.97;5074208;28;19925;-71
2021/07/26 03:13:25;;;;;;;;;;;;;;;18.50;100.00;100381.50;5074355;28;19929;-71
2021/07/26 03:15:51;;;;;;;;;;;;;;;18.50;100.00;100384.25;5074083;28;19971;-71
2021/07/26 03:18:18;;;;;;;;;;;;;;;18.47;100.00;100390.13;5074187;28;20015;-71
2021/07/26 03:20:47;;;;;;;;;;;;;;;18.46;100.00;100388.41;5074223;28;19964;-71
2021/07/26 03:23:14;;;;;;;;;;;;;;;18.43;100.00;100399.78;5074143;28;19959;-71
2021/07/26 03:25:41;;;;;;;;;;;;;;;18.42;100.00;100394.50;5072783;28;19956;-71
2021/07/26 03:28:08;;;;;;;;;;;;;;;18.37;100.00;100401.38;5073804;28;19924;-72
2021/07/26 03:30:34;;;;;;;;;;;;;;;18.33;100.00;100397.31;5073626;28;19963;-71
2021/07/26 03:33:01;;;;;;;;;;;;;;;18.31;100.00;100393.03;5074312;28;19963;-67
2021/07/26 03:35:27;;;;;;;;;;;;;;;18.27;100.00;100389.78;5073784;28;19928;-66
2021/07/26 03:37:55;;;;;;;;;;;;;;;18.28;100.00;100394.25;5073779;28;20000;-66
2021/07/26 03:40:21;;;;;;;;;;;;;;;18.29;100.00;100397.84;5073813;28;20400;-71
2021/07/26 03:42:48;;;;;;;;;;;;;;;18.30;100.00;100389.41;5073819;28;20451;-71
2021/07/26 03:45:15;;;;;;;;;;;;;;;18.30;100.00;100394.06;5073816;28;19963;-66
2021/07/26 03:47:42;;;;;;;;;;;;;;;18.32;100.00;100395.59;5073471;28;20391;-66
2021/07/26 03:50:10;;;;;;;;;;;;;;;18.32;100.00;100392.84;5073514;28;20007;-71
2021/07/26 03:52:42;;;;;;;;;;;;;;;18.35;100.00;100394.38;5073375;28;19970;-71
2021/07/26 03:55:10;;;;;;;;;;;;;;;18.37;100.00;100395.91;5073557;28;19924;-68
2021/07/26 03:57:37;;;;;;;;;;;;;;;18.40;100.00;100400.19;5073644;28;20422;-68
2021/07/26 04:00:04;;;;;;;;;;;;;;;18.40;100.00;100400.19;5078317;28;20014;-68
2021/07/26 04:02:38;;;;;;;;;;;;;;;18.42;100.00;100398.06;5086308;28;20189;-68
2021/07/26 04:05:07;;;;;;;;;;;;;;;18.44;100.00;100392.41;5090278;28;19924;-68
2021/07/26 04:07:36;;;;;;;;;;;;;;;18.53;100.00;100389.41;5084173;28;20057;-68
2021/07/26 04:10:06;;;;;;;;;;;;;;;18.59;100.00;100382.31;5073880;28;19924;-68
2021/07/26 04:12:35;;;;;;;;;;;;;;;18.66;100.00;100388.75;5053311;28;20338;-68
2021/07/26 04:15:08;;;;;;;;;;;;;;;18.72;100.00;100378.94;5055901;28;19978;-62
2021/07/26 04:17:34;;;;;;;;;;;;;;;18.78;100.00;100377.34;5093221;28;19924;-62
2021/07/26 04:20:00;;;;;;;;;;;;;;;18.82;100.00;100379.50;5091752;28;19962;-69
2021/07/26 04:22:26;;;;;;;;;;;;;;;18.86;100.00;100377.25;5077954;28;19924;-70
2021/07/26 04:24:53;;;;;;;;;;;;;;;18.88;100.00;100375.16;5078508;28;19959;-70
2021/07/26 04:27:19;;;;;;;;;;;;;;;18.96;100.00;100377.00;5075132;28;20015;-70
2021/07/26 04:29:47;;;;;;;;;;;;;;;18.99;100.00;100369.22;5072772;28;19980;-70
2021/07/26 04:32:13;;;;;;;;;;;;;;;19.05;100.00;100375.84;5075623;28;19974;-69
2021/07/26 04:34:39;;;;;;;;;;;;;;;19.07;100.00;100379.28;5092706;28;19924;-70
2021/07/26 04:37:06;;;;;;;;;;;;;;;19.11;100.00;100383.38;5091147;28;20341;-69
2021/07/26 04:39:32;;;;;;;;;;;;;;;19.13;100.00;100378.50;5072220;28;19928;-70
2021/07/26 04:41:58;;;;;;;;;;;;;;;19.18;100.00;100372.47;5073758;28;20015;-70
2021/07/26 04:44:24;;;;;;;;;;;;;;;19.21;100.00;100370.19;5089062;28;20409;-70
2021/07/26 04:46:52;;;;;;;;;;;;;;;19.27;100.00;100386.97;5090145;28;20014;-69
2021/07/26 04:49:19;;;;;;;;;;;;;;;19.29;100.00;100371.97;5092438;28;19966;-69
2021/07/26 04:51:46;;;;;;;;;;;;;;;19.35;100.00;100373.97;5077221;28;19928;-70
2021/07/26 04:54:12;;;;;;;;;;;;;;;19.42;100.00;100385.06;5072390;28;19928;-71
2021/07/26 04:56:38;;;;;;;;;;;;;;;19.48;100.00;100387.06;5085097;28;20018;-70
2021/07/26 04:59:05;;;;;;;;;;;;;;;19.47;100.00;100381.72;5069587;28;19924;-69
2021/07/26 05:01:31;;;;;;;;;;;;;;;19.52;100.00;100396.66;5085293;28;20032;-69
2021/07/26 05:03:58;;;;;;;;;;;;;;;19.57;100.00;100396.94;5071801;28;19962;-70
2021/07/26 05:06:25;;;;;;;;;;;;;;;19.64;100.00;100407.16;5071953;28;19928;-70
2021/07/26 05:08:51;;;;;;;;;;;;;;;19.67;100.00;100396.63;5070957;28;19932;-70
2021/07/26 05:11:21;;;;;;;;;;;;;;;19.73;100.00;100394.97;5073010;28;20015;-62
2021/07/26 05:13:48;;;;;;;;;;;;;;;19.80;100.00;100401.44;5074623;28;19928;-62
2021/07/26 05:16:14;;;;;;;;;;;;;;;19.85;100.00;100404.47;5074830;28;20019;-62
2021/07/26 05:18:40;;;;;;;;;;;;;;;19.92;100.00;100395.44;5072825;28;20419;-68
2021/07/26 05:21:08;;;;;;;;;;;;;;;19.96;100.00;100380.25;5090241;28;20455;-68
2021/07/26 05:23:34;;;;;;;;;;;;;;;20.04;100.00;100391.13;5091399;28;20355;-68
2021/07/26 05:26:00;;;;;;;;;;;;;;;20.11;100.00;100385.69;5057537;28;20372;-68
2021/07/26 05:28:27;;;;;;;;;;;;;;;20.15;100.00;100373.22;5077770;28;19985;-68
2021/07/26 05:30:53;;;;;;;;;;;;;;;20.16;100.00;100367.53;5079799;28;20011;-68
2021/07/26 05:33:19;;;;;;;;;;;;;;;20.23;100.00;100354.69;5075711;28;20019;-68
2021/07/26 05:35:46;;;;;;;;;;;;;;;20.23;100.00;100354.69;5078911;28;19930;-68
2021/07/26 05:38:13;;;;;;;;;;;;;;;20.32;100.00;100347.09;5089252;28;20035;-68
2021/07/26 05:40:41;;;;;;;;;;;;;;;20.42;100.00;100344.03;5071052;28;20012;-69
2021/07/26 05:43:10;;;;;;;;;;;;;;;20.50;100.00;100354.06;5071707;28;20332;-68
2021/07/26 05:45:36;;;;;;;;;;;;;;;20.58;100.00;100354.75;5073859;28;19930;-69
2021/07/26 05:48:03;;;;;;;;;;;;;;;20.58;100.00;100337.38;5083261;28;19929;-67
2021/07/26 05:50:30;;;;;;;;;;;;;;;20.66;100.00;100344.66;5078796;28;19977;-68
2021/07/26 05:52:57;;;;;;;;;;;;;;;20.71;100.00;100339.41;5076440;28;19935;-68
2021/07/26 05:55:24;;;;;;;;;;;;;;;20.77;100.00;100341.38;5073543;28;19963;-68
2021/07/26 05:57:51;;;;;;;;;;;;;;;20.85;100.00;100354.16;5081336;28;19978;-68
2021/07/26 06:00:24;;;;;;;;;;;;;;;20.88;100.00;100349.09;5071486;28;19931;-68
2021/07/26 06:02:50;;;;;;;;;;;;;;;20.97;100.00;100357.22;5071521;28;19930;-68
2021/07/26 06:05:17;;;;;;;;;;;;;;;21.04;100.00;100358.09;5078973;28;20358;-68
2021/07/26 06:07:43;;;;;;;;;;;;;;;21.13;100.00;100345.84;5091296;28;19967;-68
2021/07/26 06:10:10;;;;;;;;;;;;;;;21.28;100.00;100370.53;5089714;28;20365;-68
2021/07/26 06:12:37;;;;;;;;;;;;;;;21.40;100.00;100371.66;5091595;28;19924;-68
2021/07/26 06:15:04;;;;;;;;;;;;;;;21.49;100.00;100366.00;5089519;28;19970;-68
2021/07/26 06:17:30;;;;;;;;;;;;;;;21.58;100.00;100373.06;5090309;28;20342;-67
2021/07/26 06:19:57;;;;;;;;;;;;;;;21.61;100.00;100366.28;5072357;28;19975;-67
2021/07/26 06:22:23;;;;;;;;;;;;;;;21.62;100.00;100370.72;5084093;28;19978;-61
2021/07/26 06:24:49;;;;;;;;;;;;;;;21.68;100.00;100354.19;5073588;28;19928;-61
2021/07/26 06:27:16;;;;;;;;;;;;;;;21.95;100.00;100375.53;5070701;28;20167;-61
2021/07/26 06:29:44;;;;;;;;;;;;;;;22.08;100.00;100372.81;5070927;28;19924;-61
2021/07/26 06:32:10;;;;;;;;;;;;;;;22.12;100.00;100362.19;5070589;28;19932;-61
2021/07/26 06:34:36;;;;;;;;;;;;;;;22.64;100.00;100351.41;5071882;28;20360;-61
2021/07/26 06:37:03;;;;;;;;;;;;;;;23.55;100.00;100360.81;5077243;28;19948;-61
2021/07/26 06:39:29;;;;;;;;;;;;;;;24.23;100.00;100354.69;5091084;28;19967;-61
2021/07/26 06:41:55;;;;;;;;;;;;;;;24.84;100.00;100348.69;5082128;28;20435;-61
2021/07/26 06:44:22;;;;;;;;;;;;;;;25.13;100.00;100344.31;5074845;28;19963;-61
2021/07/26 06:46:49;;;;;;;;;;;;;;;25.41;100.00;100351.31;5075505;28;19931;-62
2021/07/26 06:49:16;;;;;;;;;;;;;;;25.75;100.00;100351.75;5074454;28;19932;-65
2021/07/26 06:51:42;;;;;;;;;;;;;;;26.10;100.00;100347.44;5077810;28;19982;-64
2021/07/26 06:54:08;;;;;;;;;;;;;;;26.48;100.00;100351.75;5083248;28;19986;-64
2021/07/26 06:56:35;;;;;;;;;;;;;;;26.77;100.00;100358.34;5073481;28;20465;-64
2021/07/26 06:59:01;;;;;;;;;;;;;;;26.69;100.00;100353.13;5085682;28;19928;-64
2021/07/26 07:01:28;;;;;;;;;;;;;;;26.75;100.00;100351.31;5094721;28;19985;-64
2021/07/26 07:03:56;;;;;;;;;;;;;;;26.55;100.00;100346.91;5083586;28;19928;-63
2021/07/26 07:06:23;;;;;;;;;;;;;;;26.78;100.00;100350.84;5085315;28;20375;-63
2021/07/26 07:08:50;;;;;;;;;;;;;;;27.08;100.00;100347.94;5076172;28;20379;-64
2021/07/26 07:11:17;;;;;;;;;;;;;;;27.47;100.00;100342.69;5074252;28;20399;-64
2021/07/26 07:13:44;;;;;;;;;;;;;;;27.93;100.00;100348.34;5081649;28;20019;-64
2021/07/26 07:16:11;;;;;;;;;;;;;;;27.95;100.00;100350.88;5090526;28;20019;-64
2021/07/26 07:18:38;;;;;;;;;;;;;;;27.19;100.00;100352.66;5076157;28;19970;-63
2021/07/26 07:21:06;;;;;;;;;;;;;;;26.60;100.00;100360.13;5077625;28;19928;-64
2021/07/26 07:23:32;;;;;;;;;;;;;;;26.19;100.00;100357.97;5076855;28;20019;-64
2021/07/26 07:25:59;;;;;;;;;;;;;;;25.69;100.00;100361.00;5084584;28;19971;-64
2021/07/26 07:28:26;;;;;;;;;;;;;;;25.32;100.00;100352.66;5092216;28;20300;-69
2021/07/26 07:30:52;;;;;;;;;;;;;;;25.00;100.00;100359.22;5093928;28;20027;-70
2021/07/26 07:33:19;;;;;;;;;;;;;;;24.78;100.00;100363.47;5090483;28;19928;-70
2021/07/26 07:35:45;;;;;;;;;;;;;;;24.67;100.00;100373.41;5074764;28;20394;-70
2021/07/26 07:38:13;;;;;;;;;;;;;;;24.50;100.00;100376.69;5074416;28;20359;-70
2021/07/26 07:40:39;;;;;;;;;;;;;;;24.57;100.00;100371.94;5077550;28;19925;-63
2021/07/26 07:43:05;;;;;;;;;;;;;;;24.64;100.00;100371.06;5087296;28;20160;-63
2021/07/26 07:45:32;;;;;;;;;;;;;;;24.97;100.00;100364.38;5093597;28;19924;-64
2021/07/26 07:47:58;;;;;;;;;;;;;;;25.90;100.00;100363.28;5081342;28;19988;-64
2021/07/26 07:50:25;;;;;;;;;;;;;;;26.88;100.00;100356.66;5072991;28;20023;-63
2021/07/26 07:52:53;;;;;;;;;;;;;;;27.39;100.00;100351.41;5072980;28;19928;-63
2021/07/26 07:55:21;;;;;;;;;;;;;;;27.75;100.00;100357.75;5072787;28;19924;-63
2021/07/26 07:57:51;;;;;;;;;;;;;;;28.32;100.00;100354.09;5072410;28;19925;-64
2021/07/26 08:00:17;;;;;;;;;;;;;;;28.33;100.00;100361.38;5084648;28;19970;-64
2021/07/26 08:02:44;;;;;;;;;;;;;;;28.01;100.00;100363.88;5073001;28;20415;-64
2021/07/26 08:05:10;;;;;;;;;;;;;;;27.78;100.00;100356.41;5072887;28;19955;-64
2021/07/26 08:07:37;;;;;;;;;;;;;;;27.58;100.00;100365.19;5072713;28;19964;-64
2021/07/26 08:10:03;;;;;;;;;;;;;;;28.35;100.00;100364.75;5074182;28;20016;-64
2021/07/26 08:12:32;;;;;;;;;;;;;;;28.45;100.00;100369.69;5085238;28;19924;-64
2021/07/26 08:14:58;;;;;;;;;;;;;;;28.51;100.00;100367.81;5080922;28;19928;-64
2021/07/26 08:17:25;;;;;;;;;;;;;;;28.76;100.00;100366.59;5071060;28;20319;-64
2021/07/26 08:19:51;;;;;;;;;;;;;;;29.21;100.00;100355.28;5072666;28;20039;-70
2021/07/26 08:22:19;;;;;;;;;;;;;;;29.59;100.00;100354.69;5071369;28;20327;-71
2021/07/26 08:24:45;;;;;;;;;;;;;;;30.11;100.00;100348.56;5073691;28;19934;-71
2021/07/26 08:27:11;;;;;;;;;;;;;;;30.37;100.00;100352.47;5072774;28;19982;-71
2021/07/26 08:29:39;;;;;;;;;;;;;;;30.89;100.00;100352.91;5084642;28;19963;-71
2021/07/26 08:32:05;;;;;;;;;;;;;;;31.07;100.00;100351.66;5082458;28;19925;-70
2021/07/26 08:34:33;;;;;;;;;;;;;;;31.69;100.00;100346.38;5072229;28;19931;-71
2021/07/26 08:37:01;;;;;;;;;;;;;;;31.57;93.30;100351.34;5072021;28;19928;-70
2021/07/26 08:39:28;;;;;;;;;;;;;;;31.62;94.58;100345.78;5075127;28;19929;-71
2021/07/26 08:41:54;;;;;;;;;;;;;;;31.51;100.00;100361.69;5074299;28;20005;-70
2021/07/26 08:44:20;;;;;;;;;;;;;;;31.24;93.37;100356.22;5072449;28;19965;-70
2021/07/26 08:46:49;;;;;;;;;;;;;;;31.07;98.74;100354.47;5076036;28;20015;-70
2021/07/26 08:49:15;;;;;;;;;;;;;;;31.17;100.00;100356.47;5082606;28;19952;-70
2021/07/26 08:51:43;;;;;;;;;;;;;;;31.33;99.94;100360.19;5071530;28;20395;-70
2021/07/26 08:54:10;;;;;;;;;;;;;;;31.72;100.00;100368.25;5072203;28;19946;-70
2021/07/26 08:56:37;;;;;;;;;;;;;;;31.95;97.73;100366.06;5086336;28;20487;-70
2021/07/26 08:59:04;;;;;;;;;;;;;;;32.13;96.52;100365.56;5092084;28;20401;-70
2021/07/26 09:01:31;;;;;;;;;;;;;;;32.34;90.40;100368.44;5068968;28;20457;-70
2021/07/26 09:03:58;;;;;;;;;;;;;;;32.73;99.43;100370.72;5075039;28;20015;-70
2021/07/26 09:06:25;;;;;;;;;;;;;;;32.49;84.96;100370.41;5091167;28;19956;-70
2021/07/26 09:08:53;;;;;;;;;;;;;;;32.38;85.29;100369.56;5079897;28;19931;-70
2021/07/26 09:11:20;;;;;;;;;;;;;;;32.26;89.95;100363.34;5071811;28;19956;-70
2021/07/26 09:13:46;;;;;;;;;;;;;;;32.41;90.69;100363.38;5080873;28;19963;-64
2021/07/26 09:16:13;;;;;;;;;;;;;;;31.82;89.54;100361.84;5092244;28;19967;-64
2021/07/26 09:18:40;;;;;;;;;;;;;;;31.44;89.79;100359.16;5082588;28;19932;-64
2021/07/26 09:21:07;;;;;;;;;;;;;;;31.61;96.78;100358.13;5078042;28;19978;-64
2021/07/26 09:23:38;;;;;;;;;;;;;;;32.00;100.00;100371.69;5072555;28;20411;-65
2021/07/26 09:26:24;;;;;;;;;;;;;;;32.47;92.01;100364.22;5076265;28;19981;-64
2021/07/26 09:28:50;;;;;;;;;;;;;;;32.69;94.15;100361.97;5080467;28;20025;-64
2021/07/26 09:31:17;;;;;;;;;;;;;;;32.60;85.37;100365.63;5091869;28;19967;-64
2021/07/26 09:33:43;;;;;;;;;;;;;;;32.05;82.06;100363.28;5084549;28;19971;-65
2021/07/26 09:36:13;;;;;;;;;;;;;;;32.13;90.96;100362.75;5072641;28;20018;-64
2021/07/26 09:38:43;;;;;;;;;;;;;;;32.57;92.48;100361.41;5071292;28;19924;-70
2021/07/26 09:41:09;;;;;;;;;;;;;;;32.78;85.58;100365.09;5072590;28;20011;-71
2021/07/26 09:43:36;;;;;;;;;;;;;;;32.82;83.32;100362.56;5074497;28;19927;-71
2021/07/26 09:46:02;;;;;;;;;;;;;;;33.05;88.31;100361.13;5091554;28;20326;-70
2021/07/26 09:48:30;;;;;;;;;;;;;;;33.03;80.58;100367.03;5089873;28;20027;-70
2021/07/26 09:50:57;;;;;;;;;;;;;;;33.19;86.57;100361.34;5091227;28;19934;-71
2021/07/26 09:53:26;;;;;;;;;;;;;;;33.73;85.38;100362.59;5087088;28;19930;-70
2021/07/26 09:55:52;;;;;;;;;;;;;;;33.79;72.91;100353.03;5086498;28;19924;-70
2021/07/26 09:58:19;;;;;;;;;;;;;;;33.87;74.16;100351.56;5082482;28;19936;-71
2021/07/26 10:00:46;;;;;;;;;;;;;;;34.02;80.61;100350.63;5089927;28;19973;-70
2021/07/26 10:03:14;;;;;;;;;;;;;;;34.11;74.70;100353.69;5082197;28;19978;-70
2021/07/26 10:05:41;;;;;;;;;;;;;;;33.45;68.67;100353.72;5070824;28;19928;-71
2021/07/26 10:08:08;;;;;;;;;;;;;;;33.46;77.20;100361.03;5074923;28;20015;-71
2021/07/26 10:10:37;;;;;;;;;;;;;;;33.06;77.15;100362.81;5088663;28;20022;-70
2021/07/26 10:13:03;;;;;;;;;;;;;;;32.80;76.36;100353.56;5087411;28;19924;-70
2021/07/26 10:15:30;;;;;;;;;;;;;;;32.87;74.58;100360.59;5088162;28;19959;-70
2021/07/26 10:17:56;;;;;;;;;;;;;;;33.27;75.88;100346.75;5090016;28;19932;-69
2021/07/26 10:20:24;;;;;;;;;;;;;;;32.92;75.75;100356.09;5074511;28;20319;-64
2021/07/26 10:22:56;;;;;;;;;;;;;;;32.50;83.48;100369.28;5081865;28;19931;-64
2021/07/26 10:25:27;;;;;;;;;;;;;;;32.53;79.35;100361.13;5089551;28;19963;-64
2021/07/26 10:27:58;;;;;;;;;;;;;;;32.07;87.15;100361.06;5093770;28;20015;-64
2021/07/26 10:30:32;;;;;;;;;;;;;;;32.33;95.97;100361.13;5077772;28;19924;-64
2021/07/26 10:33:00;;;;;;;;;;;;;;;32.59;87.46;100347.09;5074474;28;19978;-64
2021/07/26 10:35:33;;;;;;;;;;;;;;;32.58;85.28;100351.00;5085185;28;20441;-64
2021/07/26 10:38:00;;;;;;;;;;;;;;;32.93;89.95;100354.97;5094522;28;19971;-70
2021/07/26 10:40:29;;;;;;;;;;;;;;;32.85;82.31;100353.56;5093075;28;19956;-70
2021/07/26 10:43:00;;;;;;;;;;;;;;;32.11;82.08;100350.09;5054781;28;19975;-70
2021/07/26 10:45:45;;;;;;;;;;;;;;;32.41;88.30;100351.31;5081594;28;20520;-70
2021/07/26 10:48:30;;;;;;;;;;;;;;;32.56;77.88;100345.69;5095120;28;20427;-70
2021/07/26 10:50:58;;;;;;;;;;;;;;;32.57;84.13;100349.34;5084517;28;20272;-70
2021/07/26 10:53:48;;;;;;;;;;;;;;;32.52;84.22;100345.44;5081942;28;19928;-70
2021/07/26 10:56:15;;;;;;;;;;;;;;;32.70;85.35;100341.19;5094273;28;20010;-71
2021/07/26 10:59:03;;;;;;;;;;;;;;;32.81;81.61;100341.22;5083399;28;20030;-70
2021/07/26 11:01:56;;;;;;;;;;;;;;;32.39;87.02;100340.38;5074796;28;19969;-71
2021/07/26 11:04:36;;;;;;;;;;;;;;;32.02;72.18;100327.38;5078497;28;20292;-71
2021/07/26 11:07:04;;;;;;;;;;;;;;;32.60;79.43;100331.94;5073983;28;20373;-71
2021/07/26 11:09:40;;;;;;;;;;;;;;;32.58;70.68;100331.34;5074349;28;19972;-71
2021/07/26 11:12:06;;;;;;;;;;;;;;;32.15;71.80;100332.44;5076416;28;20496;-71
2021/07/26 11:14:33;;;;;;;;;;;;;;;32.16;70.96;100324.91;5082020;28;20399;-71
2021/07/26 11:17:02;;;;;;;;;;;;;;;32.90;76.97;100313.38;5087786;28;20019;-71
2021/07/26 11:19:35;;;;;;;;;;;;;;;33.26;68.15;100316.09;5074014;28;20330;-71
2021/07/26 11:22:03;;;;;;;;;;;;;;;32.80;62.07;100328.28;5079263;28;19927;-65
2021/07/26 11:24:45;;;;;;;;;;;;;;;33.24;66.90;100322.00;5082316;28;19964;-65
2021/07/26 11:27:13;;;;;;;;;;;;;;;32.98;73.15;100319.25;5075850;28;19979;-64
2021/07/26 11:29:39;;;;;;;;;;;;;;;33.32;62.72;100321.41;5082775;28;19932;-64
2021/07/26 11:32:07;;;;;;;;;;;;;;;33.19;65.92;100313.56;5073476;28;19933;-64
2021/07/26 11:34:34;;;;;;;;;;;;;;;33.49;58.86;100314.63;5073447;28;20309;-64
2021/07/26 11:37:04;;;;;;;;;;;;;;;33.95;64.66;100311.56;5073555;28;20304;-64
2021/07/26 11:39:47;;;;;;;;;;;;;;;34.01;65.61;100309.56;5073522;28;19931;-64
2021/07/26 11:42:16;;;;;;;;;;;;;;;34.14;64.55;100306.09;5070530;28;19970;-64
2021/07/26 11:44:43;;;;;;;;;;;;;;;34.01;62.29;100312.38;5082298;28;19932;-64
2021/07/26 11:47:12;;;;;;;;;;;;;;;33.31;61.64;100302.03;5073920;28;20019;-71
2021/07/26 11:49:44;;;;;;;;;;;;;;;33.49;63.06;100300.56;5057375;28;19967;-71
2021/07/26 11:52:11;;;;;;;;;;;;;;;33.00;61.08;100296.50;5089416;28;19931;-71
2021/07/26 11:54:37;;;;;;;;;;;;;;;33.51;63.84;100293.53;5075861;28;19928;-71
2021/07/26 11:57:04;;;;;;;;;;;;;;;34.13;63.34;100300.72;5083334;28;20466;-71
2021/07/26 11:59:31;;;;;;;;;;;;;;;33.92;57.53;100294.44;5093355;28;20410;-64
2021/07/26 12:01:58;;;;;;;;;;;;;;;34.07;61.78;100299.94;5085439;28;20067;-63
2021/07/26 12:04:29;;;;;;;;;;;;;;;33.25;64.40;100303.16;5072797;28;20400;-64
2021/07/26 12:06:57;;;;;;;;;;;;;;;32.53;63.64;100299.34;5073376;28;20419;-63
2021/07/26 12:09:23;;;;;;;;;;;;;;;32.22;75.02;100290.94;5079653;28;19951;-63
2021/07/26 12:11:50;;;;;;;;;;;;;;;33.04;75.21;100289.16;5079595;28;19925;-64
2021/07/26 12:14:26;;;;;;;;;;;;;;;33.26;71.15;100288.84;5074331;28;19956;-65
2021/07/26 12:16:56;;;;;;;;;;;;;;;33.70;67.91;100292.81;5072550;28;19928;-64
2021/07/26 12:19:22;;;;;;;;;;;;;;;34.01;64.02;100292.69;5074086;28;20015;-71
2021/07/26 12:21:50;;;;;;;;;;;;;;;34.42;68.33;100285.91;5072635;28;20008;-71
2021/07/26 12:24:16;;;;;;;;;;;;;;;34.67;60.86;100276.38;5073721;28;19970;-71
2021/07/26 12:26:57;;;;;;;;;;;;;;;34.87;59.66;100284.63;5077248;28;19972;-71
2021/07/26 12:29:26;;;;;;;;;;;;;;;34.41;53.85;100290.69;5073608;28;19963;-71
2021/07/26 12:32:02;;;;;;;;;;;;;;;34.46;61.62;100287.84;5074754;28;19935;-71
2021/07/26 12:34:28;;;;;;;;;;;;;;;33.72;59.17;100280.16;5074141;28;20057;-71